sensor_id;sensor_type;location;lat;lon;timestamp;P1;durP1;ratioP1;P2;durP2;ratioP2
42148;SDS011;64624;47.208;8.706;2024-03-07T00:00:46;2.08;;;0.88;;
42148;SDS011;64624;47.208;8.706;2024-03-07T00:03:12;2.90;;;1.20;;
42148;SDS011;64624;47.208;8.706;2024-03-07T00:05:38;2.60;;;1.10;;
42148;SDS011;64624;47.208;8.706;2024-03-07T00:08:04;2.30;;;1.00;;
42148;SDS011;64624;47.208;8.706;2024-03-07T00:10:31;2.95;;;1.17;;
42148;SDS011;64624;47.208;8.706;2024-03-07T00:12:56;2.70;;;1.27;;
42148;SDS011;64624;47.208;8.706;2024-03-07T00:15:22;2.58;;;1.15;;
42148;SDS011;64624;47.208;8.706;2024-03-07T00:17:48;2.63;;;1.13;;
42148;SDS011;64624;47.208;8.706;2024-03-07T00:20:14;3.97;;;1.25;;
42148;SDS011;64624;47.208;8.706;2024-03-07T00:22:40;2.63;;;1.10;;
42148;SDS011;64624;47.208;8.706;2024-03-07T00:25:06;2.92;;;1.25;;
42148;SDS011;64624;47.208;8.706;2024-03-07T00:27:34;2.33;;;0.95;;
42148;SDS011;64624;47.208;8.706;2024-03-07T00:30:01;2.75;;;1.15;;
42148;SDS011;64624;47.208;8.706;2024-03-07T00:32:30;2.47;;;1.25;;
42148;SDS011;64624;47.208;8.706;2024-03-07T00:35:00;2.42;;;1.05;;
42148;SDS011;64624;47.208;8.706;2024-03-07T00:37:29;2.20;;;1.00;;
42148;SDS011;64624;47.208;8.706;2024-03-07T00:39:56;2.75;;;1.20;;
42148;SDS011;64624;47.208;8.706;2024-03-07T00:42:21;2.78;;;1.27;;
42148;SDS011;64624;47.208;8.706;2024-03-07T00:44:47;2.63;;;1.45;;
42148;SDS011;64624;47.208;8.706;2024-03-07T00:47:14;2.15;;;1.00;;
42148;SDS011;64624;47.208;8.706;2024-03-07T00:49:42;2.33;;;1.10;;
42148;SDS011;64624;47.208;8.706;2024-03-07T00:52:08;2.88;;;1.35;;
42148;SDS011;64624;47.208;8.706;2024-03-07T00:54:35;3.45;;;1.38;;
42148;SDS011;64624;47.208;8.706;2024-03-07T00:57:01;3.13;;;1.35;;
42148;SDS011;64624;47.208;8.706;2024-03-07T00:59:27;2.70;;;1.17;;
42148;SDS011;64624;47.208;8.706;2024-03-07T01:01:52;2.55;;;1.27;;
42148;SDS011;64624;47.208;8.706;2024-03-07T01:04:18;2.72;;;1.38;;
42148;SDS011;64624;47.208;8.706;2024-03-07T01:06:44;3.33;;;1.70;;
42148;SDS011;64624;47.208;8.706;2024-03-07T01:09:10;3.30;;;1.35;;
42148;SDS011;64624;47.208;8.706;2024-03-07T01:11:43;3.50;;;1.45;;
42148;SDS011;64624;47.208;8.706;2024-03-07T01:14:12;2.47;;;1.17;;
42148;SDS011;64624;47.208;8.706;2024-03-07T01:16:38;3.28;;;1.70;;
42148;SDS011;64624;47.208;8.706;2024-03-07T01:19:04;3.67;;;1.70;;
42148;SDS011;64624;47.208;8.706;2024-03-07T01:21:33;3.28;;;1.55;;
42148;SDS011;64624;47.208;8.706;2024-03-07T01:24:00;3.13;;;1.40;;
42148;SDS011;64624;47.208;8.706;2024-03-07T01:26:29;2.67;;;1.42;;
42148;SDS011;64624;47.208;8.706;2024-03-07T01:28:55;3.00;;;1.60;;
42148;SDS011;64624;47.208;8.706;2024-03-07T01:31:24;4.33;;;1.50;;
42148;SDS011;64624;47.208;8.706;2024-03-07T01:33:50;2.65;;;1.33;;
42148;SDS011;64624;47.208;8.706;2024-03-07T01:36:15;3.00;;;1.67;;
42148;SDS011;64624;47.208;8.706;2024-03-07T01:38:41;3.58;;;1.80;;
42148;SDS011;64624;47.208;8.706;2024-03-07T01:41:08;3.95;;;2.10;;
42148;SDS011;64624;47.208;8.706;2024-03-07T01:43:33;4.07;;;1.90;;
42148;SDS011;64624;47.208;8.706;2024-03-07T01:45:59;3.22;;;1.50;;
42148;SDS011;64624;47.208;8.706;2024-03-07T01:48:26;3.17;;;1.70;;
42148;SDS011;64624;47.208;8.706;2024-03-07T01:50:56;3.50;;;1.70;;
42148;SDS011;64624;47.208;8.706;2024-03-07T01:53:27;2.53;;;1.30;;
42148;SDS011;64624;47.208;8.706;2024-03-07T01:58:21;3.10;;;1.40;;
42148;SDS011;64624;47.208;8.706;2024-03-07T02:00:48;3.42;;;1.88;;
42148;SDS011;64624;47.208;8.706;2024-03-07T02:03:14;3.42;;;1.52;;
42148;SDS011;64624;47.208;8.706;2024-03-07T02:05:40;3.05;;;1.60;;
42148;SDS011;64624;47.208;8.706;2024-03-07T02:08:06;3.55;;;2.03;;
42148;SDS011;64624;47.208;8.706;2024-03-07T02:10:32;4.78;;;2.03;;
42148;SDS011;64624;47.208;8.706;2024-03-07T02:12:57;3.38;;;1.80;;
42148;SDS011;64624;47.208;8.706;2024-03-07T02:15:23;3.47;;;1.67;;
42148;SDS011;64624;47.208;8.706;2024-03-07T02:17:49;3.45;;;2.00;;
42148;SDS011;64624;47.208;8.706;2024-03-07T02:20:14;3.63;;;1.70;;
42148;SDS011;64624;47.208;8.706;2024-03-07T02:22:41;3.40;;;1.80;;
42148;SDS011;64624;47.208;8.706;2024-03-07T02:25:07;3.38;;;1.70;;
42148;SDS011;64624;47.208;8.706;2024-03-07T02:27:36;3.60;;;1.95;;
42148;SDS011;64624;47.208;8.706;2024-03-07T02:30:03;3.15;;;1.77;;
42148;SDS011;64624;47.208;8.706;2024-03-07T02:32:33;3.80;;;2.20;;
42148;SDS011;64624;47.208;8.706;2024-03-07T02:34:59;4.18;;;2.10;;
42148;SDS011;64624;47.208;8.706;2024-03-07T02:37:25;3.80;;;1.70;;
42148;SDS011;64624;47.208;8.706;2024-03-07T02:39:51;3.60;;;2.00;;
42148;SDS011;64624;47.208;8.706;2024-03-07T02:42:17;3.40;;;1.70;;
42148;SDS011;64624;47.208;8.706;2024-03-07T02:44:43;4.05;;;2.05;;
42148;SDS011;64624;47.208;8.706;2024-03-07T02:47:09;3.55;;;1.98;;
42148;SDS011;64624;47.208;8.706;2024-03-07T02:49:35;4.38;;;2.40;;
42148;SDS011;64624;47.208;8.706;2024-03-07T02:52:00;4.40;;;2.30;;
42148;SDS011;64624;47.208;8.706;2024-03-07T02:54:26;4.65;;;2.40;;
42148;SDS011;64624;47.208;8.706;2024-03-07T02:56:52;3.65;;;2.10;;
42148;SDS011;64624;47.208;8.706;2024-03-07T02:59:18;4.32;;;2.10;;
42148;SDS011;64624;47.208;8.706;2024-03-07T03:01:43;3.80;;;2.00;;
42148;SDS011;64624;47.208;8.706;2024-03-07T03:04:10;4.05;;;2.25;;
42148;SDS011;64624;47.208;8.706;2024-03-07T03:06:35;4.15;;;2.00;;
42148;SDS011;64624;47.208;8.706;2024-03-07T03:09:01;4.38;;;2.38;;
42148;SDS011;64624;47.208;8.706;2024-03-07T03:11:29;3.80;;;2.40;;
42148;SDS011;64624;47.208;8.706;2024-03-07T03:13:55;3.85;;;2.10;;
42148;SDS011;64624;47.208;8.706;2024-03-07T03:16:21;4.28;;;2.13;;
42148;SDS011;64624;47.208;8.706;2024-03-07T03:18:46;4.47;;;2.20;;
42148;SDS011;64624;47.208;8.706;2024-03-07T03:21:13;4.40;;;2.38;;
42148;SDS011;64624;47.208;8.706;2024-03-07T03:23:40;4.25;;;2.35;;
42148;SDS011;64624;47.208;8.706;2024-03-07T03:26:06;4.28;;;2.45;;
42148;SDS011;64624;47.208;8.706;2024-03-07T03:28:32;4.32;;;2.63;;
42148;SDS011;64624;47.208;8.706;2024-03-07T03:30:57;4.05;;;2.20;;
42148;SDS011;64624;47.208;8.706;2024-03-07T03:33:23;4.28;;;2.47;;
42148;SDS011;64624;47.208;8.706;2024-03-07T03:35:48;4.18;;;2.25;;
42148;SDS011;64624;47.208;8.706;2024-03-07T03:38:14;3.53;;;1.90;;
42148;SDS011;64624;47.208;8.706;2024-03-07T03:40:41;4.78;;;2.30;;
42148;SDS011;64624;47.208;8.706;2024-03-07T03:43:06;4.45;;;2.83;;
42148;SDS011;64624;47.208;8.706;2024-03-07T03:45:32;4.60;;;2.45;;
42148;SDS011;64624;47.208;8.706;2024-03-07T03:47:59;4.47;;;2.67;;
42148;SDS011;64624;47.208;8.706;2024-03-07T03:50:24;4.18;;;2.53;;
42148;SDS011;64624;47.208;8.706;2024-03-07T03:52:51;4.90;;;2.83;;
42148;SDS011;64624;47.208;8.706;2024-03-07T03:55:18;4.43;;;2.22;;
42148;SDS011;64624;47.208;8.706;2024-03-07T03:57:45;4.07;;;2.17;;
42148;SDS011;64624;47.208;8.706;2024-03-07T04:00:14;4.38;;;2.42;;
42148;SDS011;64624;47.208;8.706;2024-03-07T04:02:41;3.80;;;2.17;;
42148;SDS011;64624;47.208;8.706;2024-03-07T04:05:12;4.63;;;2.53;;
42148;SDS011;64624;47.208;8.706;2024-03-07T04:07:38;4.20;;;2.73;;
42148;SDS011;64624;47.208;8.706;2024-03-07T04:10:04;4.40;;;2.30;;
42148;SDS011;64624;47.208;8.706;2024-03-07T04:12:40;5.68;;;2.90;;
42148;SDS011;64624;47.208;8.706;2024-03-07T04:15:10;4.68;;;2.55;;
42148;SDS011;64624;47.208;8.706;2024-03-07T04:17:37;4.80;;;2.80;;
42148;SDS011;64624;47.208;8.706;2024-03-07T04:20:04;4.63;;;2.35;;
42148;SDS011;64624;47.208;8.706;2024-03-07T04:22:34;4.72;;;2.70;;
42148;SDS011;64624;47.208;8.706;2024-03-07T04:25:03;4.47;;;2.95;;
42148;SDS011;64624;47.208;8.706;2024-03-07T04:27:29;4.90;;;2.90;;
42148;SDS011;64624;47.208;8.706;2024-03-07T04:29:55;4.43;;;2.08;;
42148;SDS011;64624;47.208;8.706;2024-03-07T04:32:21;4.65;;;2.33;;
42148;SDS011;64624;47.208;8.706;2024-03-07T04:34:47;3.72;;;2.00;;
42148;SDS011;64624;47.208;8.706;2024-03-07T04:37:13;3.95;;;2.03;;
42148;SDS011;64624;47.208;8.706;2024-03-07T04:39:39;3.90;;;2.20;;
42148;SDS011;64624;47.208;8.706;2024-03-07T04:42:05;4.22;;;2.30;;
42148;SDS011;64624;47.208;8.706;2024-03-07T04:44:32;5.05;;;2.72;;
42148;SDS011;64624;47.208;8.706;2024-03-07T04:47:00;4.38;;;2.60;;
42148;SDS011;64624;47.208;8.706;2024-03-07T04:49:27;4.47;;;2.45;;
42148;SDS011;64624;47.208;8.706;2024-03-07T04:51:56;5.72;;;3.28;;
42148;SDS011;64624;47.208;8.706;2024-03-07T04:54:23;5.47;;;3.30;;
42148;SDS011;64624;47.208;8.706;2024-03-07T04:56:50;5.82;;;3.17;;
42148;SDS011;64624;47.208;8.706;2024-03-07T04:59:17;6.10;;;3.40;;
42148;SDS011;64624;47.208;8.706;2024-03-07T05:01:44;5.72;;;3.45;;
42148;SDS011;64624;47.208;8.706;2024-03-07T05:04:11;7.22;;;3.38;;
42148;SDS011;64624;47.208;8.706;2024-03-07T05:06:38;4.97;;;2.72;;
42148;SDS011;64624;47.208;8.706;2024-03-07T05:09:05;5.18;;;2.97;;
42148;SDS011;64624;47.208;8.706;2024-03-07T05:11:32;6.10;;;2.72;;
42148;SDS011;64624;47.208;8.706;2024-03-07T05:13:58;5.15;;;3.00;;
42148;SDS011;64624;47.208;8.706;2024-03-07T05:16:25;5.57;;;3.03;;
42148;SDS011;64624;47.208;8.706;2024-03-07T05:18:55;6.50;;;3.60;;
42148;SDS011;64624;47.208;8.706;2024-03-07T05:21:27;6.17;;;3.60;;
42148;SDS011;64624;47.208;8.706;2024-03-07T05:23:59;6.07;;;3.22;;
42148;SDS011;64624;47.208;8.706;2024-03-07T05:26:25;6.00;;;3.45;;
42148;SDS011;64624;47.208;8.706;2024-03-07T05:28:51;5.78;;;3.10;;
42148;SDS011;64624;47.208;8.706;2024-03-07T05:31:19;5.70;;;3.00;;
42148;SDS011;64624;47.208;8.706;2024-03-07T05:33:46;5.75;;;3.08;;
42148;SDS011;64624;47.208;8.706;2024-03-07T05:36:15;6.10;;;3.07;;
42148;SDS011;64624;47.208;8.706;2024-03-07T05:38:44;4.75;;;2.75;;
42148;SDS011;64624;47.208;8.706;2024-03-07T05:41:12;5.38;;;3.17;;
42148;SDS011;64624;47.208;8.706;2024-03-07T05:43:38;6.25;;;3.63;;
42148;SDS011;64624;47.208;8.706;2024-03-07T05:46:05;5.55;;;2.75;;
42148;SDS011;64624;47.208;8.706;2024-03-07T05:48:35;5.38;;;3.35;;
42148;SDS011;64624;47.208;8.706;2024-03-07T05:51:01;5.38;;;2.97;;
42148;SDS011;64624;47.208;8.706;2024-03-07T05:53:27;6.55;;;2.90;;
42148;SDS011;64624;47.208;8.706;2024-03-07T05:55:52;5.97;;;3.08;;
42148;SDS011;64624;47.208;8.706;2024-03-07T05:58:18;6.47;;;3.00;;
42148;SDS011;64624;47.208;8.706;2024-03-07T06:00:47;6.18;;;3.00;;
42148;SDS011;64624;47.208;8.706;2024-03-07T06:03:17;5.78;;;3.35;;
42148;SDS011;64624;47.208;8.706;2024-03-07T06:08:13;4.90;;;3.03;;
42148;SDS011;64624;47.208;8.706;2024-03-07T06:10:41;5.78;;;3.35;;
42148;SDS011;64624;47.208;8.706;2024-03-07T06:13:09;5.72;;;3.25;;
42148;SDS011;64624;47.208;8.706;2024-03-07T06:15:37;4.60;;;2.75;;
42148;SDS011;64624;47.208;8.706;2024-03-07T06:18:03;5.35;;;2.85;;
42148;SDS011;64624;47.208;8.706;2024-03-07T06:20:30;4.70;;;2.80;;
42148;SDS011;64624;47.208;8.706;2024-03-07T06:22:55;5.45;;;3.05;;
42148;SDS011;64624;47.208;8.706;2024-03-07T06:25:22;5.50;;;2.85;;
42148;SDS011;64624;47.208;8.706;2024-03-07T06:28:00;4.57;;;2.90;;
42148;SDS011;64624;47.208;8.706;2024-03-07T06:30:34;4.90;;;2.67;;
42148;SDS011;64624;47.208;8.706;2024-03-07T06:33:01;5.82;;;2.95;;
42148;SDS011;64624;47.208;8.706;2024-03-07T06:35:26;4.18;;;2.60;;
42148;SDS011;64624;47.208;8.706;2024-03-07T06:37:52;5.03;;;2.75;;
42148;SDS011;64624;47.208;8.706;2024-03-07T06:40:17;5.05;;;2.75;;
42148;SDS011;64624;47.208;8.706;2024-03-07T06:42:47;5.13;;;2.73;;
42148;SDS011;64624;47.208;8.706;2024-03-07T06:47:43;4.45;;;2.50;;
42148;SDS011;64624;47.208;8.706;2024-03-07T06:50:09;5.00;;;2.88;;
42148;SDS011;64624;47.208;8.706;2024-03-07T06:52:39;5.75;;;2.97;;
42148;SDS011;64624;47.208;8.706;2024-03-07T06:55:05;4.80;;;3.00;;
42148;SDS011;64624;47.208;8.706;2024-03-07T06:57:32;4.72;;;2.70;;
42148;SDS011;64624;47.208;8.706;2024-03-07T06:59:59;5.03;;;2.90;;
42148;SDS011;64624;47.208;8.706;2024-03-07T07:02:25;5.40;;;2.83;;
42148;SDS011;64624;47.208;8.706;2024-03-07T07:04:52;5.47;;;2.97;;
42148;SDS011;64624;47.208;8.706;2024-03-07T07:07:18;5.50;;;3.17;;
42148;SDS011;64624;47.208;8.706;2024-03-07T07:09:45;5.07;;;2.88;;
42148;SDS011;64624;47.208;8.706;2024-03-07T07:12:11;6.72;;;3.17;;
42148;SDS011;64624;47.208;8.706;2024-03-07T07:14:36;5.07;;;2.80;;
42148;SDS011;64624;47.208;8.706;2024-03-07T07:17:03;5.78;;;3.38;;
42148;SDS011;64624;47.208;8.706;2024-03-07T07:19:28;4.75;;;2.75;;
42148;SDS011;64624;47.208;8.706;2024-03-07T07:21:54;4.72;;;2.80;;
42148;SDS011;64624;47.208;8.706;2024-03-07T07:24:20;4.63;;;2.53;;
42148;SDS011;64624;47.208;8.706;2024-03-07T07:26:49;4.10;;;2.40;;
42148;SDS011;64624;47.208;8.706;2024-03-07T07:29:15;4.28;;;2.50;;
42148;SDS011;64624;47.208;8.706;2024-03-07T07:31:41;5.95;;;3.00;;
42148;SDS011;64624;47.208;8.706;2024-03-07T07:34:07;5.25;;;2.80;;
42148;SDS011;64624;47.208;8.706;2024-03-07T07:36:32;4.53;;;2.22;;
42148;SDS011;64624;47.208;8.706;2024-03-07T07:38:58;5.50;;;2.95;;
42148;SDS011;64624;47.208;8.706;2024-03-07T07:41:24;4.75;;;2.88;;
42148;SDS011;64624;47.208;8.706;2024-03-07T07:43:50;4.93;;;2.63;;
42148;SDS011;64624;47.208;8.706;2024-03-07T07:46:16;4.95;;;2.65;;
42148;SDS011;64624;47.208;8.706;2024-03-07T07:48:43;5.18;;;3.00;;
42148;SDS011;64624;47.208;8.706;2024-03-07T07:51:09;3.95;;;2.10;;
42148;SDS011;64624;47.208;8.706;2024-03-07T07:53:34;4.57;;;1.98;;
42148;SDS011;64624;47.208;8.706;2024-03-07T07:56:00;5.07;;;2.03;;
42148;SDS011;64624;47.208;8.706;2024-03-07T07:58:26;4.30;;;2.25;;
42148;SDS011;64624;47.208;8.706;2024-03-07T08:00:52;4.30;;;2.25;;
42148;SDS011;64624;47.208;8.706;2024-03-07T08:03:18;3.85;;;2.03;;
42148;SDS011;64624;47.208;8.706;2024-03-07T08:05:45;4.60;;;2.10;;
42148;SDS011;64624;47.208;8.706;2024-03-07T08:08:11;3.65;;;1.92;;
42148;SDS011;64624;47.208;8.706;2024-03-07T08:10:41;4.15;;;1.83;;
42148;SDS011;64624;47.208;8.706;2024-03-07T08:13:07;3.90;;;1.85;;
42148;SDS011;64624;47.208;8.706;2024-03-07T08:15:38;4.13;;;1.80;;
42148;SDS011;64624;47.208;8.706;2024-03-07T08:18:04;4.22;;;2.42;;
42148;SDS011;64624;47.208;8.706;2024-03-07T08:20:37;3.88;;;1.90;;
42148;SDS011;64624;47.208;8.706;2024-03-07T08:23:03;4.40;;;1.92;;
42148;SDS011;64624;47.208;8.706;2024-03-07T08:25:29;4.53;;;2.15;;
42148;SDS011;64624;47.208;8.706;2024-03-07T08:27:58;3.17;;;1.70;;
42148;SDS011;64624;47.208;8.706;2024-03-07T08:30:25;3.67;;;1.55;;
42148;SDS011;64624;47.208;8.706;2024-03-07T08:32:57;4.43;;;2.30;;
42148;SDS011;64624;47.208;8.706;2024-03-07T08:35:23;4.40;;;2.38;;
42148;SDS011;64624;47.208;8.706;2024-03-07T08:37:50;3.92;;;2.17;;
42148;SDS011;64624;47.208;8.706;2024-03-07T08:40:21;4.90;;;2.00;;
42148;SDS011;64624;47.208;8.706;2024-03-07T08:42:48;3.85;;;1.98;;
42148;SDS011;64624;47.208;8.706;2024-03-07T08:45:16;5.13;;;1.83;;
42148;SDS011;64624;47.208;8.706;2024-03-07T08:47:45;3.97;;;1.95;;
42148;SDS011;64624;47.208;8.706;2024-03-07T08:50:12;3.65;;;2.17;;
42148;SDS011;64624;47.208;8.706;2024-03-07T08:52:39;3.83;;;1.88;;
42148;SDS011;64624;47.208;8.706;2024-03-07T08:55:05;3.50;;;1.90;;
42148;SDS011;64624;47.208;8.706;2024-03-07T08:57:36;4.10;;;2.17;;
42148;SDS011;64624;47.208;8.706;2024-03-07T09:00:02;3.90;;;1.85;;
42148;SDS011;64624;47.208;8.706;2024-03-07T09:02:33;3.65;;;1.75;;
42148;SDS011;64624;47.208;8.706;2024-03-07T09:05:02;3.83;;;1.77;;
42148;SDS011;64624;47.208;8.706;2024-03-07T09:07:29;3.70;;;1.65;;
42148;SDS011;64624;47.208;8.706;2024-03-07T09:09:55;4.07;;;1.85;;
42148;SDS011;64624;47.208;8.706;2024-03-07T09:12:21;3.65;;;1.67;;
42148;SDS011;64624;47.208;8.706;2024-03-07T09:14:47;3.70;;;1.90;;
42148;SDS011;64624;47.208;8.706;2024-03-07T09:17:13;3.70;;;1.77;;
42148;SDS011;64624;47.208;8.706;2024-03-07T09:19:38;3.95;;;2.10;;
42148;SDS011;64624;47.208;8.706;2024-03-07T09:22:04;3.75;;;1.95;;
42148;SDS011;64624;47.208;8.706;2024-03-07T09:24:33;3.88;;;1.92;;
42148;SDS011;64624;47.208;8.706;2024-03-07T09:26:59;3.92;;;1.40;;
42148;SDS011;64624;47.208;8.706;2024-03-07T09:29:25;3.70;;;2.00;;
42148;SDS011;64624;47.208;8.706;2024-03-07T09:31:52;3.13;;;1.55;;
42148;SDS011;64624;47.208;8.706;2024-03-07T09:34:19;3.65;;;1.80;;
42148;SDS011;64624;47.208;8.706;2024-03-07T09:36:46;3.75;;;1.45;;
42148;SDS011;64624;47.208;8.706;2024-03-07T09:39:12;3.92;;;1.90;;
42148;SDS011;64624;47.208;8.706;2024-03-07T09:41:38;3.40;;;1.58;;
42148;SDS011;64624;47.208;8.706;2024-03-07T09:44:09;3.38;;;1.63;;
42148;SDS011;64624;47.208;8.706;2024-03-07T09:46:38;2.88;;;1.40;;
42148;SDS011;64624;47.208;8.706;2024-03-07T09:49:04;3.20;;;1.50;;
42148;SDS011;64624;47.208;8.706;2024-03-07T09:51:33;3.60;;;1.70;;
42148;SDS011;64624;47.208;8.706;2024-03-07T09:54:00;3.13;;;1.33;;
42148;SDS011;64624;47.208;8.706;2024-03-07T09:56:27;3.28;;;1.35;;
42148;SDS011;64624;47.208;8.706;2024-03-07T10:01:25;3.40;;;1.63;;
42148;SDS011;64624;47.208;8.706;2024-03-07T10:04:01;3.38;;;1.50;;
42148;SDS011;64624;47.208;8.706;2024-03-07T10:06:39;3.78;;;1.70;;
42148;SDS011;64624;47.208;8.706;2024-03-07T10:09:06;3.40;;;1.52;;
42148;SDS011;64624;47.208;8.706;2024-03-07T10:11:33;3.65;;;1.50;;
42148;SDS011;64624;47.208;8.706;2024-03-07T10:14:01;3.53;;;1.75;;
42148;SDS011;64624;47.208;8.706;2024-03-07T10:16:29;3.08;;;1.38;;
42148;SDS011;64624;47.208;8.706;2024-03-07T10:18:56;3.33;;;1.40;;
42148;SDS011;64624;47.208;8.706;2024-03-07T10:21:22;2.83;;;1.30;;
42148;SDS011;64624;47.208;8.706;2024-03-07T10:23:49;3.08;;;1.30;;
42148;SDS011;64624;47.208;8.706;2024-03-07T10:26:16;2.88;;;1.27;;
42148;SDS011;64624;47.208;8.706;2024-03-07T10:28:42;4.03;;;1.60;;
42148;SDS011;64624;47.208;8.706;2024-03-07T10:31:09;2.75;;;1.17;;
42148;SDS011;64624;47.208;8.706;2024-03-07T10:33:39;2.55;;;1.15;;
42148;SDS011;64624;47.208;8.706;2024-03-07T10:36:05;3.25;;;1.52;;
42148;SDS011;64624;47.208;8.706;2024-03-07T10:38:35;2.92;;;1.25;;
42148;SDS011;64624;47.208;8.706;2024-03-07T10:41:04;3.10;;;1.35;;
42148;SDS011;64624;47.208;8.706;2024-03-07T10:43:35;2.65;;;1.20;;
42148;SDS011;64624;47.208;8.706;2024-03-07T10:46:04;2.75;;;1.25;;
42148;SDS011;64624;47.208;8.706;2024-03-07T10:59:20;3.17;;;1.40;;
42148;SDS011;64624;47.208;8.706;2024-03-07T11:01:58;3.92;;;1.55;;
42148;SDS011;64624;47.208;8.706;2024-03-07T11:04:31;3.08;;;1.48;;
42148;SDS011;64624;47.208;8.706;2024-03-07T11:06:59;4.05;;;1.42;;
42148;SDS011;64624;47.208;8.706;2024-03-07T11:09:25;3.75;;;1.10;;
42148;SDS011;64624;47.208;8.706;2024-03-07T11:11:58;3.22;;;1.60;;
42148;SDS011;64624;47.208;8.706;2024-03-07T11:14:25;3.53;;;1.52;;
42148;SDS011;64624;47.208;8.706;2024-03-07T11:16:52;2.63;;;1.30;;
42148;SDS011;64624;47.208;8.706;2024-03-07T11:19:20;3.78;;;1.20;;
42148;SDS011;64624;47.208;8.706;2024-03-07T11:21:52;3.03;;;1.45;;
42148;SDS011;64624;47.208;8.706;2024-03-07T11:24:24;3.20;;;1.38;;
42148;SDS011;64624;47.208;8.706;2024-03-07T11:26:53;2.78;;;1.27;;
42148;SDS011;64624;47.208;8.706;2024-03-07T11:32:09;3.38;;;1.75;;
42148;SDS011;64624;47.208;8.706;2024-03-07T11:34:39;3.38;;;1.45;;
42148;SDS011;64624;47.208;8.706;2024-03-07T11:37:08;3.95;;;1.27;;
42148;SDS011;64624;47.208;8.706;2024-03-07T11:39:46;3.50;;;1.35;;
42148;SDS011;64624;47.208;8.706;2024-03-07T11:42:46;2.83;;;1.33;;
42148;SDS011;64624;47.208;8.706;2024-03-07T11:45:09;3.30;;;1.27;;
42148;SDS011;64624;47.208;8.706;2024-03-07T11:47:45;3.10;;;1.30;;
42148;SDS011;64624;47.208;8.706;2024-03-07T11:50:11;2.92;;;1.20;;
42148;SDS011;64624;47.208;8.706;2024-03-07T11:52:37;3.42;;;1.58;;
42148;SDS011;64624;47.208;8.706;2024-03-07T11:55:11;4.38;;;1.35;;
42148;SDS011;64624;47.208;8.706;2024-03-07T11:57:37;3.95;;;1.45;;
42148;SDS011;64624;47.208;8.706;2024-03-07T12:00:03;4.13;;;1.90;;
42148;SDS011;64624;47.208;8.706;2024-03-07T12:02:38;3.72;;;1.33;;
42148;SDS011;64624;47.208;8.706;2024-03-07T12:05:05;3.33;;;1.50;;
42148;SDS011;64624;47.208;8.706;2024-03-07T12:07:31;3.50;;;1.40;;
42148;SDS011;64624;47.208;8.706;2024-03-07T12:09:58;3.40;;;1.50;;
42148;SDS011;64624;47.208;8.706;2024-03-07T12:12:25;3.33;;;1.63;;
42148;SDS011;64624;47.208;8.706;2024-03-07T12:14:53;3.55;;;1.58;;
42148;SDS011;64624;47.208;8.706;2024-03-07T12:17:22;3.03;;;1.20;;
42148;SDS011;64624;47.208;8.706;2024-03-07T12:19:49;3.97;;;1.45;;
42148;SDS011;64624;47.208;8.706;2024-03-07T12:22:18;3.95;;;1.70;;
42148;SDS011;64624;47.208;8.706;2024-03-07T12:24:48;3.35;;;1.50;;
42148;SDS011;64624;47.208;8.706;2024-03-07T12:27:24;3.50;;;1.60;;
42148;SDS011;64624;47.208;8.706;2024-03-07T12:29:49;3.35;;;1.58;;
42148;SDS011;64624;47.208;8.706;2024-03-07T12:32:17;3.35;;;1.38;;
42148;SDS011;64624;47.208;8.706;2024-03-07T12:34:43;3.78;;;1.60;;
42148;SDS011;64624;47.208;8.706;2024-03-07T12:37:12;3.08;;;1.33;;
42148;SDS011;64624;47.208;8.706;2024-03-07T12:39:42;3.90;;;1.70;;
42148;SDS011;64624;47.208;8.706;2024-03-07T12:42:18;3.97;;;1.33;;
42148;SDS011;64624;47.208;8.706;2024-03-07T12:44:46;3.10;;;1.40;;
42148;SDS011;64624;47.208;8.706;2024-03-07T12:47:13;3.33;;;1.33;;
42148;SDS011;64624;47.208;8.706;2024-03-07T12:49:39;3.25;;;1.48;;
42148;SDS011;64624;47.208;8.706;2024-03-07T12:52:09;3.25;;;1.52;;
42148;SDS011;64624;47.208;8.706;2024-03-07T12:54:38;3.40;;;1.40;;
42148;SDS011;64624;47.208;8.706;2024-03-07T12:57:06;2.72;;;1.20;;
42148;SDS011;64624;47.208;8.706;2024-03-07T12:59:34;2.78;;;1.27;;
42148;SDS011;64624;47.208;8.706;2024-03-07T13:02:02;3.22;;;1.50;;
42148;SDS011;64624;47.208;8.706;2024-03-07T13:04:31;2.90;;;1.40;;
42148;SDS011;64624;47.208;8.706;2024-03-07T13:06:57;3.72;;;1.38;;
42148;SDS011;64624;47.208;8.706;2024-03-07T13:09:25;3.20;;;1.33;;
42148;SDS011;64624;47.208;8.706;2024-03-07T13:11:55;2.95;;;1.40;;
42148;SDS011;64624;47.208;8.706;2024-03-07T13:14:22;3.70;;;1.65;;
42148;SDS011;64624;47.208;8.706;2024-03-07T13:16:48;3.25;;;1.75;;
42148;SDS011;64624;47.208;8.706;2024-03-07T13:19:15;3.45;;;1.55;;
42148;SDS011;64624;47.208;8.706;2024-03-07T13:21:46;3.08;;;1.38;;
42148;SDS011;64624;47.208;8.706;2024-03-07T13:24:13;3.67;;;1.50;;
42148;SDS011;64624;47.208;8.706;2024-03-07T13:26:39;3.95;;;1.48;;
42148;SDS011;64624;47.208;8.706;2024-03-07T13:29:07;3.95;;;1.63;;
42148;SDS011;64624;47.208;8.706;2024-03-07T13:31:35;3.90;;;1.70;;
42148;SDS011;64624;47.208;8.706;2024-03-07T13:34:00;3.40;;;1.40;;
42148;SDS011;64624;47.208;8.706;2024-03-07T13:36:27;3.63;;;1.45;;
42148;SDS011;64624;47.208;8.706;2024-03-07T13:38:53;3.58;;;1.50;;
42148;SDS011;64624;47.208;8.706;2024-03-07T13:41:19;3.35;;;1.45;;
42148;SDS011;64624;47.208;8.706;2024-03-07T13:43:45;3.75;;;1.90;;
42148;SDS011;64624;47.208;8.706;2024-03-07T13:46:12;3.70;;;1.55;;
42148;SDS011;64624;47.208;8.706;2024-03-07T13:48:39;3.72;;;1.65;;
42148;SDS011;64624;47.208;8.706;2024-03-07T13:51:07;5.05;;;1.95;;
42148;SDS011;64624;47.208;8.706;2024-03-07T13:53:40;3.92;;;1.50;;
42148;SDS011;64624;47.208;8.706;2024-03-07T13:56:30;3.65;;;1.63;;
42148;SDS011;64624;47.208;8.706;2024-03-07T14:04:23;3.90;;;1.67;;
42148;SDS011;64624;47.208;8.706;2024-03-07T14:07:26;3.75;;;1.65;;
42148;SDS011;64624;47.208;8.706;2024-03-07T14:15:54;4.35;;;1.55;;
42148;SDS011;64624;47.208;8.706;2024-03-07T14:21:58;4.10;;;1.50;;
42148;SDS011;64624;47.208;8.706;2024-03-07T14:33:32;4.03;;;1.77;;
42148;SDS011;64624;47.208;8.706;2024-03-07T14:36:14;4.28;;;1.58;;
42148;SDS011;64624;47.208;8.706;2024-03-07T14:38:48;3.67;;;1.52;;
42148;SDS011;64624;47.208;8.706;2024-03-07T14:41:15;4.03;;;1.75;;
42148;SDS011;64624;47.208;8.706;2024-03-07T14:43:43;3.22;;;1.40;;
42148;SDS011;64624;47.208;8.706;2024-03-07T14:46:10;3.95;;;1.88;;
42148;SDS011;64624;47.208;8.706;2024-03-07T14:48:37;4.13;;;1.52;;
42148;SDS011;64624;47.208;8.706;2024-03-07T14:51:05;3.70;;;1.70;;
42148;SDS011;64624;47.208;8.706;2024-03-07T14:53:33;3.53;;;1.60;;
42148;SDS011;64624;47.208;8.706;2024-03-07T14:55:59;3.92;;;1.67;;
42148;SDS011;64624;47.208;8.706;2024-03-07T14:58:24;3.90;;;1.60;;
42148;SDS011;64624;47.208;8.706;2024-03-07T15:00:51;4.93;;;1.90;;
42148;SDS011;64624;47.208;8.706;2024-03-07T15:03:19;3.97;;;1.58;;
42148;SDS011;64624;47.208;8.706;2024-03-07T15:05:45;4.22;;;1.88;;
42148;SDS011;64624;47.208;8.706;2024-03-07T15:08:14;3.50;;;1.60;;
42148;SDS011;64624;47.208;8.706;2024-03-07T15:10:47;4.07;;;1.65;;
42148;SDS011;64624;47.208;8.706;2024-03-07T15:13:17;4.05;;;1.80;;
42148;SDS011;64624;47.208;8.706;2024-03-07T15:15:43;3.47;;;1.50;;
42148;SDS011;64624;47.208;8.706;2024-03-07T15:18:09;4.90;;;2.15;;
42148;SDS011;64624;47.208;8.706;2024-03-07T15:20:35;4.57;;;2.00;;
42148;SDS011;64624;47.208;8.706;2024-03-07T15:23:02;4.40;;;1.98;;
42148;SDS011;64624;47.208;8.706;2024-03-07T15:25:28;3.90;;;1.70;;
42148;SDS011;64624;47.208;8.706;2024-03-07T15:27:55;6.00;;;2.28;;
42148;SDS011;64624;47.208;8.706;2024-03-07T15:30:23;4.45;;;2.08;;
42148;SDS011;64624;47.208;8.706;2024-03-07T15:32:50;4.40;;;1.75;;
42148;SDS011;64624;47.208;8.706;2024-03-07T15:35:17;4.25;;;2.17;;
42148;SDS011;64624;47.208;8.706;2024-03-07T15:37:45;4.35;;;2.40;;